createdAt,value
2022-07-25T00:01:47.844Z,99.90
2022-07-25T00:04:14.865Z,99.90
2022-07-25T00:06:42.563Z,99.90
2022-07-25T00:09:09.600Z,99.90
2022-07-25T00:11:36.421Z,99.90
2022-07-25T00:14:04.732Z,99.90
2022-07-25T00:16:32.228Z,99.90
2022-07-25T00:18:59.069Z,99.90
2022-07-25T00:21:26.461Z,99.90
2022-07-25T00:23:53.314Z,99.90
2022-07-25T00:26:20.050Z,99.90
2022-07-25T00:28:46.886Z,99.90
2022-07-25T00:31:13.745Z,99.90
2022-07-25T00:33:41.191Z,99.90
2022-07-25T00:36:08.847Z,99.90
2022-07-25T00:38:35.885Z,99.90
2022-07-25T00:41:03.714Z,99.90
2022-07-25T00:43:30.720Z,99.90
2022-07-25T00:45:59.347Z,99.90
2022-07-25T00:48:28.285Z,99.90
2022-07-25T00:50:56.629Z,99.90
2022-07-25T00:53:24.817Z,99.90
2022-07-25T00:55:52.421Z,99.90
2022-07-25T00:58:19.239Z,99.90
2022-07-25T01:00:46.882Z,99.90
2022-07-25T01:03:13.926Z,99.90
2022-07-25T01:05:41.074Z,99.90
2022-07-25T01:08:09.002Z,99.90
2022-07-25T01:10:36.101Z,99.90
2022-07-25T01:13:03.181Z,99.90
2022-07-25T01:15:30.306Z,99.90
2022-07-25T01:17:57.210Z,99.90
2022-07-25T01:20:26.576Z,99.90
2022-07-25T01:22:54.037Z,99.90
2022-07-25T01:25:21.583Z,99.90
2022-07-25T01:27:54.904Z,99.90
2022-07-25T01:30:23.804Z,99.90
2022-07-25T01:32:50.891Z,99.90
2022-07-25T01:35:17.906Z,99.90
2022-07-25T01:37:45.929Z,99.90
2022-07-25T01:40:14.434Z,99.90
2022-07-25T01:42:42.164Z,99.90
2022-07-25T01:45:09.566Z,99.90
2022-07-25T01:47:36.636Z,99.90
2022-07-25T01:50:04.493Z,99.90
2022-07-25T01:52:31.767Z,99.90
2022-07-25T01:54:58.591Z,99.90
2022-07-25T01:57:30.587Z,99.90
2022-07-25T01:59:58.374Z,99.90
2022-07-25T02:02:25.305Z,99.90
2022-07-25T02:04:52.196Z,99.90
2022-07-25T02:07:19.065Z,99.90
2022-07-25T02:09:45.913Z,99.90
2022-07-25T02:12:12.759Z,99.90
2022-07-25T02:14:39.702Z,99.90
2022-07-25T02:17:06.579Z,99.90
2022-07-25T02:19:34.376Z,99.90
2022-07-25T02:22:01.326Z,99.90
2022-07-25T02:24:28.106Z,99.90
2022-07-25T02:26:54.998Z,99.90
2022-07-25T02:29:22.249Z,99.90
2022-07-25T02:31:49.443Z,99.90
2022-07-25T02:34:16.192Z,99.90
2022-07-25T02:36:43.336Z,99.90
2022-07-25T02:39:10.130Z,99.90
2022-07-25T02:41:36.850Z,99.90
2022-07-25T02:44:04.980Z,99.90
2022-07-25T02:46:32.932Z,99.90
2022-07-25T02:48:59.897Z,99.90
2022-07-25T02:51:26.736Z,99.90
2022-07-25T02:53:58.469Z,99.90
2022-07-25T02:56:29.851Z,99.90
2022-07-25T02:58:57.415Z,99.90
2022-07-25T03:01:24.329Z,99.90
2022-07-25T03:03:51.544Z,99.90
2022-07-25T03:06:18.443Z,99.90
2022-07-25T03:08:45.181Z,99.90
2022-07-25T03:11:12.992Z,99.90
2022-07-25T03:13:40.079Z,99.90
2022-07-25T03:16:07.307Z,99.90
2022-07-25T03:18:34.055Z,99.90
2022-07-25T03:21:00.877Z,99.90
2022-07-25T03:23:28.564Z,99.90
2022-07-25T03:25:56.443Z,99.90
2022-07-25T03:28:24.732Z,99.90
2022-07-25T03:30:52.255Z,99.90
2022-07-25T03:33:19.266Z,99.90
2022-07-25T03:35:46.088Z,99.90
2022-07-25T03:38:12.913Z,99.90
2022-07-25T03:40:39.733Z,99.90
2022-07-25T03:43:06.741Z,99.90
2022-07-25T03:45:33.673Z,99.90
2022-07-25T03:48:00.952Z,99.90
2022-07-25T03:50:27.746Z,99.90
2022-07-25T03:52:54.474Z,99.90
2022-07-25T03:55:21.254Z,99.90
2022-07-25T03:57:47.979Z,99.90
2022-07-25T04:00:15.623Z,99.90
2022-07-25T04:02:42.541Z,99.90
2022-07-25T04:05:09.975Z,99.90
2022-07-25T04:07:37.345Z,99.90
2022-07-25T04:10:06.541Z,99.90
2022-07-25T04:12:33.562Z,99.90
2022-07-25T04:15:00.292Z,99.90
2022-07-25T04:17:27.044Z,99.90
2022-07-25T04:19:53.849Z,99.90
2022-07-25T04:22:22.302Z,99.90
2022-07-25T04:24:49.067Z,99.90
2022-07-25T04:27:15.760Z,99.90
2022-07-25T04:29:42.468Z,99.90
2022-07-25T04:32:09.309Z,99.90
2022-07-25T04:34:36.144Z,99.90
2022-07-25T04:37:03.045Z,99.90
2022-07-25T04:39:29.800Z,99.90
2022-07-25T04:41:56.608Z,99.90
2022-07-25T04:44:23.409Z,99.90
2022-07-25T04:46:50.218Z,99.90
2022-07-25T04:49:17.096Z,99.90
2022-07-25T04:51:43.958Z,99.90
2022-07-25T04:54:10.687Z,99.90
2022-07-25T04:56:37.433Z,99.90
2022-07-25T04:59:06.716Z,99.90
2022-07-25T05:01:34.876Z,99.90
2022-07-25T05:04:01.707Z,99.90
2022-07-25T05:06:28.439Z,99.90
2022-07-25T05:08:55.545Z,99.90
2022-07-25T05:11:22.633Z,99.90
2022-07-25T05:13:49.463Z,99.90
2022-07-25T05:16:16.417Z,99.90
2022-07-25T05:18:43.268Z,99.90
2022-07-25T05:21:11.927Z,99.90
2022-07-25T05:23:39.083Z,99.90
2022-07-25T05:26:06.039Z,99.90
2022-07-25T05:28:32.813Z,99.90
2022-07-25T05:30:59.597Z,99.90
2022-07-25T05:33:26.640Z,99.90
2022-07-25T05:35:53.574Z,99.90
2022-07-25T05:38:20.554Z,99.90
2022-07-25T05:40:48.274Z,99.90
2022-07-25T05:43:15.148Z,99.90
2022-07-25T05:45:42.457Z,99.90
2022-07-25T05:48:09.268Z,99.90
2022-07-25T05:50:39.388Z,99.90
2022-07-25T05:53:06.633Z,99.90
2022-07-25T05:55:33.424Z,99.90
2022-07-25T05:58:00.248Z,99.90
2022-07-25T06:00:29.713Z,99.90
2022-07-25T06:03:00.509Z,99.90
2022-07-25T06:05:27.586Z,99.90
2022-07-25T06:07:54.458Z,99.90
2022-07-25T06:10:21.601Z,99.90
2022-07-25T06:12:48.590Z,99.90
2022-07-25T06:15:22.841Z,99.90
2022-07-25T06:17:53.755Z,99.90
2022-07-25T06:20:20.734Z,99.90
2022-07-25T06:22:47.676Z,99.90
2022-07-25T06:25:15.252Z,99.90
2022-07-25T06:27:42.436Z,99.90
2022-07-25T06:30:19.084Z,99.90
2022-07-25T06:32:48.458Z,99.90
2022-07-25T06:35:15.761Z,99.90
2022-07-25T06:37:42.510Z,99.90
2022-07-25T06:40:09.814Z,99.90
2022-07-25T06:42:40.932Z,99.90
2022-07-25T06:45:09.825Z,99.90
2022-07-25T06:47:40.607Z,99.90
2022-07-25T06:50:11.312Z,99.90
2022-07-25T06:52:39.425Z,99.90
2022-07-25T06:55:07.690Z,99.90
2022-07-25T06:57:34.633Z,99.90
2022-07-25T07:00:01.498Z,99.90
2022-07-25T07:02:28.290Z,99.90
2022-07-25T07:04:54.985Z,99.90
2022-07-25T07:07:21.716Z,99.90
2022-07-25T07:09:48.417Z,99.90
2022-07-25T07:12:15.125Z,99.90
2022-07-25T07:14:44.472Z,99.90
2022-07-25T07:17:11.706Z,99.90
2022-07-25T07:19:44.482Z,99.90
2022-07-25T07:22:11.486Z,99.90
2022-07-25T07:24:45.115Z,99.90
2022-07-25T07:27:14.874Z,99.90
2022-07-25T07:29:42.032Z,98.20
2022-07-25T07:32:08.891Z,97.10
2022-07-25T07:34:35.649Z,95.90
2022-07-25T07:37:03.578Z,96.50
2022-07-25T07:39:30.409Z,94.70
2022-07-25T07:41:57.223Z,95.20
2022-07-25T07:44:23.924Z,94.90
2022-07-25T07:46:50.733Z,97.10
2022-07-25T07:49:17.593Z,93.50
2022-07-25T07:51:44.356Z,92.30
2022-07-25T07:54:29.706Z,92.50
2022-07-25T07:56:56.585Z,92.40
2022-07-25T07:59:23.303Z,92.60
2022-07-25T08:01:50.083Z,92.00
2022-07-25T08:04:17.044Z,92.20
2022-07-25T08:06:43.758Z,92.10
2022-07-25T08:09:10.564Z,91.00
2022-07-25T08:11:38.401Z,93.00
2022-07-25T08:14:07.474Z,90.60
2022-07-25T08:16:34.645Z,91.70
2022-07-25T08:19:01.733Z,88.40
2022-07-25T08:21:28.834Z,86.80
2022-07-25T08:23:55.599Z,86.70
2022-07-25T08:26:22.374Z,89.50
2022-07-25T08:28:59.864Z,86.30
2022-07-25T08:31:35.937Z,88.70
2022-07-25T08:34:03.915Z,88.30
2022-07-25T08:36:34.876Z,87.00
2022-07-25T08:39:02.190Z,87.30
2022-07-25T08:41:29.139Z,84.70
2022-07-25T08:43:56.187Z,83.40
2022-07-25T08:46:23.523Z,86.60
2022-07-25T08:48:52.280Z,84.60
2022-07-25T08:51:19.510Z,87.20
2022-07-25T08:53:48.508Z,85.60
2022-07-25T08:56:20.632Z,84.50
2022-07-25T08:58:48.057Z,83.30
2022-07-25T09:01:15.012Z,82.20
2022-07-25T09:03:43.054Z,83.30
2022-07-25T09:06:21.546Z,87.70
2022-07-25T09:08:56.037Z,83.50
2022-07-25T09:11:27.777Z,81.90
2022-07-25T09:14:02.426Z,80.50
2022-07-25T09:16:31.401Z,79.90
2022-07-25T09:19:13.631Z,78.10
2022-07-25T09:21:41.827Z,79.60
2022-07-25T09:24:22.461Z,79.50
2022-07-25T09:26:55.502Z,79.40
2022-07-25T09:29:28.244Z,78.60
2022-07-25T09:31:56.492Z,80.40
2022-07-25T09:34:34.534Z,78.40
2022-07-25T09:37:03.752Z,79.80
2022-07-25T09:39:51.648Z,78.30
2022-07-25T09:42:28.989Z,76.30
2022-07-25T09:45:11.346Z,76.70
2022-07-25T09:47:54.672Z,78.90
2022-07-25T09:50:23.850Z,74.20
2022-07-25T09:52:52.748Z,77.30
2022-07-25T09:55:21.640Z,74.90
2022-07-25T09:57:50.123Z,76.60
2022-07-25T10:00:24.990Z,78.40
2022-07-25T10:03:16.670Z,76.40
2022-07-25T10:05:56.763Z,66.30
2022-07-25T10:08:24.723Z,64.80
2022-07-25T10:10:52.459Z,63.70
2022-07-25T10:13:34.841Z,62.70
2022-07-25T10:16:02.377Z,63.60
2022-07-25T10:18:30.804Z,61.40
2022-07-25T10:21:26.103Z,61.20
2022-07-25T10:24:06.068Z,59.30
2022-07-25T10:26:41.385Z,61.00
2022-07-25T10:29:14.066Z,52.50
2022-07-25T10:31:50.909Z,49.70
2022-07-25T10:34:30.822Z,50.00
2022-07-25T10:37:09.813Z,50.10
2022-07-25T10:39:45.005Z,50.00
2022-07-25T10:42:17.113Z,50.60
2022-07-25T10:44:48.283Z,50.90
2022-07-25T10:47:16.737Z,50.60
2022-07-25T10:50:13.417Z,48.50
2022-07-25T10:52:40.022Z,49.20
2022-07-25T10:55:07.522Z,49.80
2022-07-25T10:57:34.563Z,48.20
2022-07-25T11:00:06.429Z,46.60
2022-07-25T11:02:33.253Z,47.50
2022-07-25T11:05:02.107Z,47.80
2022-07-25T11:07:29.102Z,46.90
2022-07-25T11:10:01.220Z,45.50
2022-07-25T11:12:28.243Z,46.00
2022-07-25T11:15:03.567Z,45.70
2022-07-25T11:17:30.581Z,45.00
2022-07-25T11:20:11.705Z,45.80
2022-07-25T11:22:38.433Z,46.60
2022-07-25T11:25:16.806Z,46.00
2022-07-25T11:27:43.593Z,44.60
2022-07-25T11:30:19.819Z,45.30
2022-07-25T11:32:54.121Z,44.10
2022-07-25T11:35:24.251Z,44.60
2022-07-25T11:37:52.264Z,44.00
2022-07-25T11:40:20.778Z,44.60
2022-07-25T11:42:53.006Z,44.70
2022-07-25T11:45:22.617Z,45.40
2022-07-25T11:48:10.939Z,45.10
2022-07-25T11:50:39.850Z,43.60
2022-07-25T11:53:08.966Z,45.20
2022-07-25T11:55:40.194Z,45.10
2022-07-25T11:58:07.207Z,43.50
2022-07-25T12:00:36.631Z,44.70
2022-07-25T12:03:09.063Z,43.80
2022-07-25T12:05:36.444Z,44.20
2022-07-25T12:08:20.852Z,45.00
2022-07-25T12:10:50.536Z,44.30
2022-07-25T12:13:28.818Z,43.40
2022-07-25T12:15:59.847Z,44.70
2022-07-25T12:18:27.654Z,43.80
2022-07-25T12:20:54.391Z,42.40
2022-07-25T12:23:24.024Z,42.50
2022-07-25T12:25:50.991Z,42.10
2022-07-25T12:28:18.093Z,42.40
2022-07-25T12:30:46.528Z,41.20
2022-07-25T12:33:14.266Z,41.40
2022-07-25T12:35:42.600Z,41.50
2022-07-25T12:38:11.023Z,41.60
2022-07-25T12:40:38.089Z,41.80
2022-07-25T12:43:05.398Z,40.50
2022-07-25T12:45:32.427Z,39.70
2022-07-25T12:47:59.225Z,39.20
2022-07-25T12:50:26.197Z,40.20
2022-07-25T12:52:53.388Z,41.00
2022-07-25T12:55:20.806Z,40.20
2022-07-25T12:57:47.978Z,38.70
2022-07-25T13:00:18.757Z,38.30
2022-07-25T13:02:45.557Z,37.90
2022-07-25T13:05:12.657Z,37.90
2022-07-25T13:07:39.918Z,36.50
2022-07-25T13:10:07.031Z,36.10
2022-07-25T13:12:33.948Z,36.30
2022-07-25T13:15:01.593Z,34.70
2022-07-25T13:17:28.372Z,33.70
2022-07-25T13:19:56.523Z,35.20
2022-07-25T13:22:23.672Z,34.60
2022-07-25T13:24:51.294Z,34.30
2022-07-25T13:27:19.694Z,32.60
2022-07-25T13:29:47.072Z,31.20
2022-07-25T13:32:13.933Z,32.50
2022-07-25T13:34:40.663Z,31.80
2022-07-25T13:37:07.499Z,30.80
2022-07-25T13:39:35.698Z,32.40
2022-07-25T13:42:02.961Z,33.00
2022-07-25T13:44:29.648Z,34.20
2022-07-25T13:46:57.461Z,32.90
2022-07-25T13:49:24.930Z,32.10
2022-07-25T13:51:51.866Z,30.90
2022-07-25T13:54:18.597Z,31.10
2022-07-25T13:56:45.509Z,29.20
2022-07-25T13:59:17.342Z,29.70
2022-07-25T14:01:47.531Z,29.10
2022-07-25T14:04:14.444Z,29.20
2022-07-25T14:06:41.693Z,28.60
2022-07-25T14:09:08.969Z,27.70
2022-07-25T14:11:36.374Z,27.50
2022-07-25T14:14:03.168Z,26.90
2022-07-25T14:16:30.073Z,26.40
2022-07-25T14:18:56.910Z,26.50
2022-07-25T14:21:24.062Z,26.80
2022-07-25T14:23:52.298Z,27.10
2022-07-25T14:26:19.182Z,26.70
2022-07-25T14:28:46.030Z,26.50
2022-07-25T14:31:13.055Z,27.00
2022-07-25T14:33:40.527Z,27.10
2022-07-25T14:36:09.694Z,27.80
2022-07-25T14:38:36.627Z,26.60
2022-07-25T14:41:05.681Z,27.10
2022-07-25T14:43:35.828Z,25.60
2022-07-25T14:46:02.567Z,27.00
2022-07-25T14:48:29.422Z,26.40
2022-07-25T14:50:56.263Z,26.80
2022-07-25T14:53:23.005Z,26.30
2022-07-25T14:55:49.823Z,26.90
2022-07-25T14:58:16.599Z,26.00
2022-07-25T15:00:43.866Z,27.20
2022-07-25T15:03:10.691Z,27.40
2022-07-25T15:05:38.609Z,28.30
2022-07-25T15:08:06.570Z,29.60
2022-07-25T15:10:33.662Z,30.30
2022-07-25T15:13:28.140Z,30.60
2022-07-25T15:15:47.664Z,30.40
2022-07-25T15:18:14.868Z,29.70
2022-07-25T15:20:42.011Z,29.60
2022-07-25T15:23:08.943Z,29.60
2022-07-25T15:26:00.698Z,31.00
2022-07-25T15:28:22.994Z,31.60
2022-07-25T15:30:50.503Z,30.20
2022-07-25T15:33:20.550Z,30.70
2022-07-25T15:35:48.378Z,30.00
2022-07-25T15:38:16.366Z,29.20
2022-07-25T15:40:44.027Z,29.50
2022-07-25T15:43:11.199Z,29.70
2022-07-25T15:45:39.436Z,31.10
2022-07-25T15:48:08.341Z,32.10
2022-07-25T15:50:37.332Z,33.90
2022-07-25T15:53:04.494Z,33.70
2022-07-25T15:55:32.446Z,34.30
2022-07-25T15:58:00.238Z,34.60
2022-07-25T16:00:29.746Z,35.00
2022-07-25T16:02:57.499Z,34.70
2022-07-25T16:05:24.770Z,35.60
2022-07-25T16:07:52.191Z,35.50
2022-07-25T16:10:18.926Z,34.30
2022-07-25T16:12:45.896Z,33.90
2022-07-25T16:15:12.802Z,33.60
2022-07-25T16:17:39.985Z,33.90
2022-07-25T16:20:09.150Z,34.10
2022-07-25T16:22:36.308Z,33.70
2022-07-25T16:25:04.263Z,34.50
2022-07-25T16:27:31.465Z,35.00
2022-07-25T16:29:58.622Z,36.20
2022-07-25T16:32:25.638Z,36.30
2022-07-25T16:34:52.430Z,37.20
2022-07-25T16:37:20.744Z,37.80
2022-07-25T16:39:47.517Z,38.30
2022-07-25T16:42:14.566Z,38.10
2022-07-25T16:44:41.394Z,37.10
2022-07-25T16:47:08.481Z,37.80
2022-07-25T16:49:35.275Z,37.50
2022-07-25T16:52:01.991Z,36.70
2022-07-25T16:54:29.586Z,36.60
2022-07-25T16:56:59.608Z,37.90
2022-07-25T16:59:26.795Z,37.60
2022-07-25T17:01:53.640Z,38.60
2022-07-25T17:04:20.580Z,38.40
2022-07-25T17:06:47.478Z,37.90
2022-07-25T17:09:14.197Z,38.90
2022-07-25T17:11:41.311Z,38.30
2022-07-25T17:14:08.083Z,37.50
2022-07-25T17:16:35.029Z,38.50
2022-07-25T17:19:05.104Z,37.80
2022-07-25T17:21:32.070Z,40.30
2022-07-25T17:23:58.940Z,38.80
2022-07-25T17:26:25.748Z,38.00
2022-07-25T17:28:53.661Z,39.00
2022-07-25T17:31:20.477Z,38.80
2022-07-25T17:33:47.738Z,39.70
2022-07-25T17:36:14.503Z,40.30
2022-07-25T17:38:41.537Z,40.10
2022-07-25T17:41:08.229Z,40.70
2022-07-25T17:43:35.409Z,40.40
2022-07-25T17:46:02.357Z,40.40
2022-07-25T17:48:29.273Z,40.40
2022-07-25T17:50:56.080Z,40.60
2022-07-25T17:53:22.952Z,40.90
2022-07-25T17:55:49.702Z,41.40
2022-07-25T17:58:16.437Z,40.80
2022-07-25T18:00:43.395Z,41.60
2022-07-25T18:03:10.168Z,41.50
2022-07-25T18:05:37.447Z,41.00
2022-07-25T18:08:04.621Z,41.90
2022-07-25T18:10:31.566Z,42.70
2022-07-25T18:13:00.794Z,44.70
2022-07-25T18:15:28.240Z,45.20
2022-07-25T18:17:55.135Z,46.10
2022-07-25T18:20:22.049Z,47.60
2022-07-25T18:22:48.800Z,47.90
2022-07-25T18:25:15.575Z,48.50
2022-07-25T18:27:46.980Z,49.10
2022-07-25T18:30:15.555Z,48.90
2022-07-25T18:32:42.883Z,49.20
2022-07-25T18:35:11.167Z,49.70
2022-07-25T18:37:38.268Z,49.60
2022-07-25T18:40:07.127Z,50.80
2022-07-25T18:42:34.386Z,50.70
2022-07-25T18:45:01.233Z,50.80
2022-07-25T18:47:32.068Z,52.00
2022-07-25T18:49:59.545Z,52.20
2022-07-25T18:52:26.486Z,52.70
2022-07-25T18:54:53.539Z,53.80
2022-07-25T18:57:20.291Z,53.60
2022-07-25T18:59:47.544Z,54.50
2022-07-25T19:02:14.332Z,54.80
2022-07-25T19:04:41.103Z,55.30
2022-07-25T19:07:09.002Z,54.90
2022-07-25T19:09:35.819Z,55.50
2022-07-25T19:12:02.733Z,55.70
2022-07-25T19:14:30.864Z,55.00
2022-07-25T19:16:59.696Z,53.80
2022-07-25T19:19:26.990Z,53.70
2022-07-25T19:21:54.079Z,53.20
2022-07-25T19:24:21.770Z,53.40
2022-07-25T19:26:49.203Z,67.40
2022-07-25T19:29:16.893Z,94.80
2022-07-25T19:31:44.281Z,95.90
2022-07-25T19:34:11.638Z,89.80
2022-07-25T19:36:38.663Z,93.00
2022-07-25T19:39:06.283Z,92.50
2022-07-25T19:41:33.762Z,92.20
2022-07-25T19:44:00.815Z,94.60
2022-07-25T19:46:31.502Z,95.80
2022-07-25T19:48:58.522Z,98.30
2022-07-25T19:51:25.838Z,96.70
2022-07-25T19:53:52.655Z,94.60
2022-07-25T19:56:20.129Z,96.90
2022-07-25T19:58:46.892Z,99.00
2022-07-25T20:01:13.750Z,99.80
2022-07-25T20:03:41.613Z,91.40
2022-07-25T20:06:09.040Z,91.60
2022-07-25T20:08:37.135Z,91.30
2022-07-25T20:11:04.308Z,93.80
2022-07-25T20:13:31.081Z,99.90
2022-07-25T20:15:58.755Z,99.90
2022-07-25T20:18:25.644Z,96.20
2022-07-25T20:20:52.889Z,95.20
2022-07-25T20:23:19.649Z,95.20
2022-07-25T20:25:46.468Z,91.90
2022-07-25T20:28:13.237Z,91.30
2022-07-25T20:30:40.603Z,82.30
2022-07-25T20:33:09.587Z,79.50
2022-07-25T20:35:37.742Z,79.00
2022-07-25T20:38:09.194Z,77.10
2022-07-25T20:40:39.542Z,73.70
2022-07-25T20:43:09.222Z,73.80
2022-07-25T20:45:36.794Z,78.00
2022-07-25T20:48:04.976Z,72.60
2022-07-25T20:50:32.189Z,72.10
2022-07-25T20:52:58.922Z,74.20
2022-07-25T20:55:28.413Z,75.50
2022-07-25T20:57:55.295Z,78.00
2022-07-25T21:00:23.051Z,75.30
2022-07-25T21:02:49.933Z,73.50
2022-07-25T21:05:16.726Z,72.10
2022-07-25T21:07:43.564Z,68.60
2022-07-25T21:10:11.423Z,70.80
2022-07-25T21:12:39.401Z,68.90
2022-07-25T21:15:07.669Z,66.60
2022-07-25T21:17:34.839Z,68.40
2022-07-25T21:20:01.634Z,68.50
2022-07-25T21:22:28.402Z,66.70
2022-07-25T21:24:55.393Z,66.40
2022-07-25T21:27:22.570Z,68.80
2022-07-25T21:29:49.328Z,69.20
2022-07-25T21:32:17.321Z,68.20
2022-07-25T21:34:45.637Z,68.50
2022-07-25T21:37:13.116Z,66.20
2022-07-25T21:39:39.885Z,68.00
2022-07-25T21:42:09.790Z,67.40
2022-07-25T21:44:42.308Z,66.50
2022-07-25T21:47:09.785Z,67.60
2022-07-25T21:49:55.534Z,69.50
2022-07-25T21:52:26.620Z,69.20
2022-07-25T21:54:57.290Z,73.50
2022-07-25T21:57:24.198Z,74.60
2022-07-25T21:59:51.021Z,72.70
2022-07-25T22:02:18.486Z,75.30
2022-07-25T22:04:45.417Z,75.90
2022-07-25T22:07:12.255Z,78.50
2022-07-25T22:09:39.039Z,75.80
2022-07-25T22:12:06.191Z,82.40
2022-07-25T22:14:32.974Z,79.00
2022-07-25T22:17:00.089Z,78.90
2022-07-25T22:19:27.079Z,81.20
2022-07-25T22:21:54.031Z,79.40
2022-07-25T22:24:21.103Z,78.90
2022-07-25T22:26:47.947Z,82.20
2022-07-25T22:29:14.658Z,83.00
2022-07-25T22:31:41.465Z,86.50
2022-07-25T22:34:08.562Z,89.10
2022-07-25T22:36:35.499Z,92.10
2022-07-25T22:39:02.195Z,90.20
2022-07-25T22:41:28.962Z,90.00
2022-07-25T22:43:59.128Z,87.70
2022-07-25T22:46:29.204Z,92.10
2022-07-25T22:48:57.008Z,93.10
2022-07-25T22:51:24.466Z,93.10
2022-07-25T22:53:51.177Z,94.50
2022-07-25T22:56:17.952Z,95.60
2022-07-25T22:58:46.689Z,96.10
2022-07-25T23:01:16.371Z,97.00
2022-07-25T23:03:43.363Z,95.10
2022-07-25T23:06:10.404Z,94.60
2022-07-25T23:08:37.413Z,94.10
2022-07-25T23:11:06.113Z,92.10
2022-07-25T23:13:33.803Z,92.60
2022-07-25T23:16:01.045Z,90.40
2022-07-25T23:18:30.120Z,93.80
2022-07-25T23:20:56.886Z,95.10
2022-07-25T23:23:23.727Z,95.30
2022-07-25T23:25:50.498Z,96.80
2022-07-25T23:28:17.239Z,96.30
2022-07-25T23:30:43.958Z,98.30
2022-07-25T23:33:10.787Z,98.60
2022-07-25T23:35:37.892Z,98.60
2022-07-25T23:38:05.052Z,98.70
2022-07-25T23:40:31.841Z,99.30
2022-07-25T23:42:58.629Z,99.70
2022-07-25T23:45:28.016Z,99.80
2022-07-25T23:47:56.284Z,99.90
2022-07-25T23:50:24.024Z,99.90
2022-07-25T23:52:51.046Z,99.70
2022-07-25T23:55:17.827Z,97.60
2022-07-25T23:57:44.599Z,97.50
